createdAt,value
2018-08-03T00:00:56.289Z,23.58
2018-08-03T00:02:03.788Z,23.54
2018-08-03T00:02:56.261Z,23.53
2018-08-03T00:04:04.527Z,23.54
2018-08-03T00:05:05.577Z,23.57
2018-08-03T00:05:56.220Z,23.53
2018-08-03T00:06:56.207Z,23.57
2018-08-03T00:07:56.214Z,23.58
2018-08-03T00:08:56.200Z,23.48
2018-08-03T00:09:56.180Z,23.48
2018-08-03T00:10:56.161Z,23.43
2018-08-03T00:11:56.172Z,23.51
2018-08-03T00:12:56.164Z,23.53
2018-08-03T00:13:56.136Z,23.50
2018-08-03T00:14:56.126Z,23.50
2018-08-03T00:15:56.131Z,23.46
2018-08-03T00:16:56.108Z,23.46
2018-08-03T00:17:56.114Z,23.46
2018-08-03T00:18:56.090Z,23.43
2018-08-03T00:19:56.092Z,23.39
2018-08-03T00:20:56.065Z,23.36
2018-08-03T00:21:56.062Z,23.38
2018-08-03T00:22:56.044Z,23.27
2018-08-03T00:23:56.057Z,23.35
2018-08-03T00:24:56.074Z,23.39
2018-08-03T00:25:56.020Z,23.40
2018-08-03T00:26:56.006Z,23.35
2018-08-03T00:27:56.019Z,23.27
2018-08-03T00:28:56.028Z,23.22
2018-08-03T00:29:55.990Z,23.28
2018-08-03T00:30:55.968Z,23.20
2018-08-03T00:31:55.952Z,23.31
2018-08-03T00:32:55.945Z,23.17
2018-08-03T00:33:55.933Z,23.09
2018-08-03T00:34:55.920Z,23.10
2018-08-03T00:35:55.954Z,23.04
2018-08-03T00:36:55.932Z,23.00
2018-08-03T00:37:55.892Z,22.98
2018-08-03T00:38:55.892Z,22.94
2018-08-03T00:39:55.892Z,22.94
2018-08-03T00:40:55.872Z,22.90
2018-08-03T00:41:55.882Z,22.88
2018-08-03T00:42:55.851Z,22.86
2018-08-03T00:43:55.838Z,22.86
2018-08-03T00:44:55.824Z,22.82
2018-08-03T00:45:55.812Z,22.88
2018-08-03T00:46:55.840Z,22.76
2018-08-03T00:47:55.798Z,22.68
2018-08-03T00:48:55.783Z,22.72
2018-08-03T00:49:55.775Z,22.67
2018-08-03T00:50:55.769Z,22.68
2018-08-03T00:51:55.776Z,22.68
2018-08-03T00:52:55.745Z,22.72
2018-08-03T00:53:55.734Z,22.61
2018-08-03T00:54:55.726Z,22.61
2018-08-03T00:55:55.718Z,22.62
2018-08-03T00:56:55.707Z,22.60
2018-08-03T00:57:55.713Z,22.64
2018-08-03T00:58:55.688Z,22.67
2018-08-03T00:59:55.677Z,22.70
2018-08-03T01:00:55.667Z,22.72
2018-08-03T01:01:55.655Z,22.62
2018-08-03T01:02:55.648Z,22.65
2018-08-03T01:03:55.653Z,22.64
2018-08-03T01:04:55.626Z,22.51
2018-08-03T01:05:55.629Z,22.49
2018-08-03T01:06:55.604Z,22.47
2018-08-03T01:07:55.592Z,22.43
2018-08-03T01:08:55.598Z,22.51
2018-08-03T01:09:55.575Z,22.47
2018-08-03T01:10:55.572Z,22.45
2018-08-03T01:11:55.556Z,22.46
2018-08-03T01:12:55.543Z,22.47
2018-08-03T01:13:55.554Z,22.43
2018-08-03T01:14:55.534Z,22.39
2018-08-03T01:15:55.515Z,22.35
2018-08-03T01:16:55.505Z,22.40
2018-08-03T01:17:55.499Z,22.33
2018-08-03T01:18:55.482Z,22.27
2018-08-03T01:19:55.501Z,22.28
2018-08-03T01:20:55.460Z,22.36
2018-08-03T01:21:55.464Z,22.28
2018-08-03T01:22:55.441Z,22.31
2018-08-03T01:23:55.451Z,22.27
2018-08-03T01:24:55.428Z,22.24
2018-08-03T01:25:55.428Z,22.33
2018-08-03T01:26:55.402Z,22.31
2018-08-03T01:27:55.398Z,22.31
2018-08-03T01:28:55.383Z,22.24
2018-08-03T01:29:55.370Z,22.27
2018-08-03T01:30:55.361Z,22.25
2018-08-03T01:31:55.373Z,22.33
2018-08-03T01:32:55.336Z,22.27
2018-08-03T01:33:55.332Z,22.21
2018-08-03T01:34:55.317Z,22.20
2018-08-03T01:35:55.320Z,22.20
2018-08-03T01:36:55.328Z,22.28
2018-08-03T01:37:55.398Z,22.21
2018-08-03T01:39:03.643Z,22.30
2018-08-03T01:40:03.681Z,22.22
2018-08-03T01:40:55.281Z,22.21
2018-08-03T01:42:02.785Z,22.18
2018-08-03T01:43:03.245Z,22.05
2018-08-03T01:43:55.239Z,22.12
2018-08-03T01:44:55.217Z,22.07
2018-08-03T01:45:55.212Z,22.10
2018-08-03T01:47:16.226Z,22.09
2018-08-03T01:47:55.185Z,22.00
2018-08-03T01:48:55.182Z,21.99
2018-08-03T01:49:55.176Z,22.03
2018-08-03T01:50:55.158Z,22.03
2018-08-03T01:51:55.167Z,22.03
2018-08-03T01:52:55.142Z,21.99
2018-08-03T01:53:55.136Z,21.91
2018-08-03T01:54:55.105Z,21.96
2018-08-03T01:55:55.104Z,21.90
2018-08-03T01:56:55.102Z,21.86
2018-08-03T01:57:55.093Z,22.00
2018-08-03T01:58:55.067Z,21.99
2018-08-03T01:59:55.069Z,21.94
2018-08-03T02:00:55.047Z,21.92
2018-08-03T02:01:55.034Z,21.91
2018-08-03T02:02:55.027Z,21.92
2018-08-03T02:03:55.032Z,21.90
2018-08-03T02:04:55.017Z,21.99
2018-08-03T02:05:54.993Z,21.86
2018-08-03T02:06:54.986Z,21.90
2018-08-03T02:07:54.982Z,21.86
2018-08-03T02:08:54.989Z,21.90
2018-08-03T02:09:54.959Z,21.90
2018-08-03T02:10:54.944Z,21.80
2018-08-03T02:11:54.935Z,21.82
2018-08-03T02:12:54.924Z,21.75
2018-08-03T02:13:54.925Z,21.74
2018-08-03T02:14:54.903Z,21.71
2018-08-03T02:15:54.899Z,21.74
2018-08-03T02:16:54.892Z,21.65
2018-08-03T02:17:54.872Z,21.62
2018-08-03T02:18:54.868Z,21.58
2018-08-03T02:19:54.843Z,21.65
2018-08-03T02:20:54.831Z,21.56
2018-08-03T02:21:54.842Z,21.59
2018-08-03T02:22:54.811Z,21.59
2018-08-03T02:23:54.819Z,21.53
2018-08-03T02:24:54.789Z,21.53
2018-08-03T02:25:54.783Z,21.54
2018-08-03T02:26:54.769Z,21.54
2018-08-03T02:27:54.767Z,21.47
2018-08-03T02:28:54.751Z,21.43
2018-08-03T02:29:54.757Z,21.43
2018-08-03T02:30:54.737Z,21.47
2018-08-03T02:31:54.722Z,21.47
2018-08-03T02:32:54.713Z,21.42
2018-08-03T02:33:54.730Z,21.46
2018-08-03T02:34:54.705Z,21.31
2018-08-03T02:35:54.690Z,21.46
2018-08-03T02:36:54.667Z,21.44
2018-08-03T02:37:54.655Z,21.35
2018-08-03T02:38:54.649Z,21.29
2018-08-03T02:39:54.699Z,21.27
2018-08-03T02:40:54.657Z,21.19
2018-08-03T02:41:54.629Z,21.22
2018-08-03T02:42:54.600Z,21.25
2018-08-03T02:43:54.592Z,21.25
2018-08-03T02:44:54.582Z,21.19
2018-08-03T02:45:54.590Z,21.19
2018-08-03T02:46:54.561Z,21.19
2018-08-03T02:47:54.545Z,21.24
2018-08-03T02:48:54.535Z,21.19
2018-08-03T02:49:54.531Z,21.21
2018-08-03T02:50:54.530Z,21.22
2018-08-03T02:51:54.516Z,21.17
2018-08-03T02:52:54.509Z,21.12
2018-08-03T02:53:54.486Z,21.17
2018-08-03T02:54:54.483Z,21.13
2018-08-03T02:55:54.480Z,21.09
2018-08-03T02:56:54.451Z,21.14
2018-08-03T02:57:54.458Z,21.10
2018-08-03T02:58:54.433Z,21.13
2018-08-03T02:59:54.443Z,21.10
2018-08-03T03:00:54.430Z,21.12
2018-08-03T03:01:54.414Z,21.06
2018-08-03T03:02:54.390Z,21.07
2018-08-03T03:03:54.392Z,21.10
2018-08-03T03:04:54.363Z,21.06
2018-08-03T03:05:54.360Z,21.04
2018-08-03T03:06:54.381Z,21.16
2018-08-03T03:07:54.334Z,21.07
2018-08-03T03:08:54.316Z,21.12
2018-08-03T03:09:54.318Z,20.95
2018-08-03T03:10:54.311Z,21.04
2018-08-03T03:11:54.308Z,21.07
2018-08-03T03:12:54.276Z,20.99
2018-08-03T03:13:54.267Z,20.97
2018-08-03T03:14:54.256Z,20.91
2018-08-03T03:15:54.247Z,21.01
2018-08-03T03:16:54.255Z,20.95
2018-08-03T03:17:54.225Z,20.87
2018-08-03T03:18:54.218Z,20.87
2018-08-03T03:19:54.199Z,20.89
2018-08-03T03:20:54.198Z,20.74
2018-08-03T03:21:54.203Z,20.72
2018-08-03T03:22:54.171Z,20.70
2018-08-03T03:23:54.174Z,20.73
2018-08-03T03:24:54.149Z,20.64
2018-08-03T03:25:54.145Z,20.69
2018-08-03T03:26:54.146Z,20.69
2018-08-03T03:27:54.120Z,20.67
2018-08-03T03:28:54.107Z,20.70
2018-08-03T03:29:54.103Z,20.67
2018-08-03T03:30:54.085Z,20.73
2018-08-03T03:31:54.073Z,20.79
2018-08-03T03:32:54.072Z,20.79
2018-08-03T03:33:54.069Z,20.80
2018-08-03T03:34:54.065Z,20.80
2018-08-03T03:35:54.026Z,20.87
2018-08-03T03:36:54.016Z,20.88
2018-08-03T03:37:54.005Z,20.84
2018-08-03T03:38:54.018Z,20.87
2018-08-03T03:39:53.986Z,20.84
2018-08-03T03:40:53.971Z,20.87
2018-08-03T03:41:53.965Z,20.88
2018-08-03T03:42:53.970Z,20.85
2018-08-03T03:43:53.959Z,20.85
2018-08-03T03:44:53.946Z,20.79
2018-08-03T03:45:53.938Z,20.73
2018-08-03T03:46:53.907Z,20.73
2018-08-03T03:47:53.901Z,20.74
2018-08-03T03:48:53.887Z,20.66
2018-08-03T03:49:53.890Z,20.64
2018-08-03T03:50:53.901Z,20.70
2018-08-03T03:51:53.878Z,20.77
2018-08-03T03:52:53.845Z,20.69
2018-08-03T03:53:53.831Z,20.82
2018-08-03T03:54:53.832Z,20.77
2018-08-03T03:55:53.828Z,20.67
2018-08-03T03:56:53.807Z,20.67
2018-08-03T03:57:53.789Z,20.80
2018-08-03T03:58:53.770Z,20.74
2018-08-03T03:59:53.777Z,20.76
2018-08-03T04:00:53.768Z,20.82
2018-08-03T04:01:53.740Z,20.84
2018-08-03T04:02:53.735Z,20.87
2018-08-03T04:03:53.738Z,20.82
2018-08-03T04:04:53.754Z,20.85
2018-08-03T04:05:53.699Z,20.84
2018-08-03T04:06:53.683Z,20.82
2018-08-03T04:07:53.686Z,20.84
2018-08-03T04:08:53.659Z,20.87
2018-08-03T04:09:53.667Z,20.80
2018-08-03T04:10:53.695Z,20.94
2018-08-03T04:11:53.635Z,20.91
2018-08-03T04:12:53.670Z,20.94
2018-08-03T04:13:53.631Z,20.95
2018-08-03T04:14:53.604Z,20.94
2018-08-03T04:15:53.625Z,20.97
2018-08-03T04:16:53.587Z,20.92
2018-08-03T04:17:53.578Z,20.91
2018-08-03T04:18:53.574Z,20.97
2018-08-03T04:19:53.570Z,21.01
2018-08-03T04:20:53.553Z,20.99
2018-08-03T04:21:53.529Z,20.94
2018-08-03T04:22:53.531Z,20.98
2018-08-03T04:23:53.498Z,20.99
2018-08-03T04:24:53.485Z,20.95
2018-08-03T04:25:53.516Z,21.01
2018-08-03T04:26:53.475Z,20.97
2018-08-03T04:27:53.482Z,21.12
2018-08-03T04:28:53.460Z,21.16
2018-08-03T04:29:53.440Z,21.17
2018-08-03T04:30:53.423Z,21.21
2018-08-03T04:31:53.437Z,21.25
2018-08-03T04:32:53.417Z,21.21
2018-08-03T04:33:53.397Z,21.35
2018-08-03T04:34:53.403Z,21.31
2018-08-03T04:35:53.384Z,21.43
2018-08-03T04:36:53.405Z,21.42
2018-08-03T04:37:53.392Z,21.50
2018-08-03T04:38:53.364Z,21.47
2018-08-03T04:39:53.344Z,21.47
2018-08-03T04:40:53.367Z,21.56
2018-08-03T04:41:53.326Z,21.54
2018-08-03T04:42:53.321Z,21.71
2018-08-03T04:43:53.304Z,21.79
2018-08-03T04:44:53.302Z,21.90
2018-08-03T04:45:53.309Z,21.92
2018-08-03T04:46:53.252Z,21.94
2018-08-03T04:47:53.282Z,22.05
2018-08-03T04:48:53.253Z,22.02
2018-08-03T04:49:53.218Z,21.99
2018-08-03T04:50:53.212Z,21.98
2018-08-03T04:51:53.204Z,21.91
2018-08-03T04:52:53.202Z,21.84
2018-08-03T04:53:53.213Z,22.00
2018-08-03T04:54:53.175Z,22.02
2018-08-03T04:55:53.181Z,21.91
2018-08-03T04:56:53.148Z,21.88
2018-08-03T04:57:53.130Z,21.88
2018-08-03T04:59:14.135Z,21.90
2018-08-03T04:59:53.112Z,21.77
2018-08-03T05:00:53.116Z,21.72
2018-08-03T05:01:53.089Z,21.72
2018-08-03T05:02:53.084Z,21.77
2018-08-03T05:03:53.086Z,21.83
2018-08-03T05:04:53.054Z,21.71
2018-08-03T05:05:53.056Z,21.79
2018-08-03T05:06:53.032Z,21.75
2018-08-03T05:07:53.030Z,21.77
2018-08-03T05:08:53.345Z,21.75
2018-08-03T05:09:53.029Z,21.90
2018-08-03T05:10:52.990Z,21.79
2018-08-03T05:11:52.992Z,21.77
2018-08-03T05:12:52.976Z,21.84
2018-08-03T05:14:13.989Z,21.79
2018-08-03T05:14:52.953Z,21.91
2018-08-03T05:15:52.943Z,21.83
2018-08-03T05:16:52.928Z,21.86
2018-08-03T05:17:52.918Z,21.82
2018-08-03T05:18:52.908Z,21.92
2018-08-03T05:19:52.924Z,21.82
2018-08-03T05:20:52.890Z,21.96
2018-08-03T05:21:52.885Z,21.92
2018-08-03T05:22:52.883Z,21.96
2018-08-03T05:23:52.866Z,21.90
2018-08-03T05:24:52.860Z,22.00
2018-08-03T05:25:52.835Z,22.05
2018-08-03T05:26:52.827Z,22.17
2018-08-03T05:27:52.813Z,22.27
2018-08-03T05:28:52.796Z,22.33
2018-08-03T05:29:52.809Z,22.31
2018-08-03T05:30:52.782Z,22.36
2018-08-03T05:31:52.770Z,22.40
2018-08-03T05:32:52.779Z,22.55
2018-08-03T05:33:52.753Z,22.55
2018-08-03T05:34:52.734Z,22.68
2018-08-03T05:35:52.774Z,22.62
2018-08-03T05:36:52.718Z,22.61
2018-08-03T05:37:52.711Z,22.70
2018-08-03T05:38:52.711Z,22.62
2018-08-03T05:39:52.686Z,22.67
2018-08-03T05:40:52.679Z,22.62
2018-08-03T05:41:52.679Z,22.73
2018-08-03T05:42:52.669Z,22.68
2018-08-03T05:43:52.644Z,22.68
2018-08-03T05:44:52.636Z,22.80
2018-08-03T05:45:52.625Z,22.88
2018-08-03T05:46:52.660Z,22.85
2018-08-03T05:47:52.605Z,22.91
2018-08-03T05:48:52.591Z,22.95
2018-08-03T05:49:52.585Z,22.94
2018-08-03T05:50:52.567Z,23.00
2018-08-03T05:51:52.563Z,23.02
2018-08-03T05:52:52.574Z,22.95
2018-08-03T05:53:52.547Z,23.13
2018-08-03T05:55:13.543Z,23.15
2018-08-03T05:55:52.528Z,23.13
2018-08-03T05:56:52.509Z,23.15
2018-08-03T05:57:52.516Z,23.16
2018-08-03T05:58:52.526Z,23.13
2018-08-03T05:59:52.511Z,23.20
2018-08-03T06:00:52.484Z,23.13
2018-08-03T06:01:52.461Z,23.19
2018-08-03T06:02:52.452Z,23.33
2018-08-03T06:03:52.490Z,23.28
2018-08-03T06:04:52.489Z,23.36
2018-08-03T06:05:52.423Z,23.38
2018-08-03T06:06:52.410Z,23.27
2018-08-03T06:07:52.411Z,23.36
2018-08-03T06:08:52.391Z,23.36
2018-08-03T06:09:52.409Z,23.39
2018-08-03T06:10:52.377Z,23.55
2018-08-03T06:11:52.364Z,23.58
2018-08-03T06:12:52.351Z,23.61
2018-08-03T06:13:52.359Z,23.66
2018-08-03T06:14:52.632Z,23.65
2018-08-03T06:15:52.351Z,23.72
2018-08-03T06:16:52.313Z,23.79
2018-08-03T06:17:52.300Z,23.83
2018-08-03T06:18:52.299Z,23.94
2018-08-03T06:19:52.298Z,24.03
2018-08-03T06:20:52.275Z,24.09
2018-08-03T06:21:52.263Z,24.18
2018-08-03T06:22:52.247Z,24.15
2018-08-03T06:23:52.260Z,24.15
2018-08-03T06:24:52.247Z,24.18
2018-08-03T06:25:52.215Z,24.15
2018-08-03T06:26:52.211Z,24.16
2018-08-03T06:27:52.201Z,24.20
2018-08-03T06:28:52.209Z,24.22
2018-08-03T06:29:52.174Z,24.21
2018-08-03T06:30:52.170Z,24.21
2018-08-03T06:31:52.192Z,24.45
2018-08-03T06:32:52.151Z,24.43
2018-08-03T06:33:52.140Z,24.40
2018-08-03T06:34:52.153Z,24.53
2018-08-03T06:35:52.131Z,24.60
2018-08-03T06:36:52.121Z,24.77
2018-08-03T06:37:52.115Z,24.90
2018-08-03T06:38:52.094Z,25.03
2018-08-03T06:39:52.079Z,25.08
2018-08-03T06:40:52.190Z,25.15
2018-08-03T06:41:52.075Z,25.24
2018-08-03T06:42:52.071Z,25.38
2018-08-03T06:43:52.061Z,25.42
2018-08-03T06:44:52.044Z,25.45
2018-08-03T06:45:52.019Z,25.58
2018-08-03T06:46:52.013Z,25.60
2018-08-03T06:47:52.020Z,25.62
2018-08-03T06:48:51.996Z,25.69
2018-08-03T06:49:51.984Z,25.72
2018-08-03T06:50:51.972Z,25.73
2018-08-03T06:51:51.973Z,25.72
2018-08-03T06:52:51.973Z,25.75
2018-08-03T06:53:52.020Z,25.76
2018-08-03T06:54:51.932Z,25.79
2018-08-03T06:55:51.936Z,25.82
2018-08-03T06:56:51.918Z,25.87
2018-08-03T06:57:51.928Z,25.95
2018-08-03T06:58:51.922Z,26.02
2018-08-03T06:59:51.893Z,26.12
2018-08-03T07:00:51.886Z,26.06
2018-08-03T07:01:51.873Z,26.09
2018-08-03T07:02:51.954Z,26.17
2018-08-03T07:03:51.881Z,26.18
2018-08-03T07:04:51.845Z,26.29
2018-08-03T07:05:51.837Z,26.39
2018-08-03T07:06:51.833Z,26.37
2018-08-03T07:07:51.821Z,26.43
2018-08-03T07:08:51.804Z,26.17
2018-08-03T07:09:51.816Z,26.20
2018-08-03T07:10:51.785Z,26.21
2018-08-03T07:11:51.777Z,26.09
2018-08-03T07:12:51.781Z,26.07
2018-08-03T07:13:51.763Z,26.06
2018-08-03T07:14:51.841Z,26.05
2018-08-03T07:15:51.744Z,25.99
2018-08-03T07:16:52.284Z,26.01
2018-08-03T07:17:51.731Z,25.95
2018-08-03T07:18:51.714Z,25.91
2018-08-03T07:19:51.769Z,25.91
2018-08-03T07:20:51.717Z,26.01
2018-08-03T07:21:51.686Z,25.98
2018-08-03T07:22:51.699Z,26.10
2018-08-03T07:23:51.676Z,26.09
2018-08-03T07:24:51.664Z,26.23
2018-08-03T07:25:51.696Z,26.21
2018-08-03T07:26:51.646Z,26.20
2018-08-03T07:27:51.651Z,26.15
2018-08-03T07:28:51.620Z,26.23
2018-08-03T07:29:51.612Z,26.18
2018-08-03T07:30:51.625Z,26.30
2018-08-03T07:31:51.621Z,26.28
2018-08-03T07:32:51.589Z,26.29
2018-08-03T07:33:51.580Z,26.35
2018-08-03T07:34:51.568Z,26.29
2018-08-03T07:35:51.578Z,26.30
2018-08-03T07:36:51.574Z,26.37
2018-08-03T07:38:12.560Z,26.39
2018-08-03T07:38:51.533Z,26.43
2018-08-03T07:39:51.524Z,26.44
2018-08-03T07:40:51.518Z,26.48
2018-08-03T07:41:51.521Z,26.58
2018-08-03T07:42:51.506Z,26.54
2018-08-03T07:43:51.498Z,26.54
2018-08-03T07:44:51.515Z,26.62
2018-08-03T07:45:51.468Z,26.67
2018-08-03T07:46:51.456Z,26.72
2018-08-03T07:47:51.466Z,26.73
2018-08-03T07:48:51.448Z,26.70
2018-08-03T07:49:51.432Z,26.82
2018-08-03T07:50:51.424Z,26.89
2018-08-03T07:51:51.418Z,26.87
2018-08-03T07:52:51.425Z,27.00
2018-08-03T07:53:51.402Z,27.09
2018-08-03T07:54:51.386Z,27.21
2018-08-03T07:55:51.379Z,27.10
2018-08-03T07:56:51.387Z,27.22
2018-08-03T07:57:51.378Z,27.29
2018-08-03T07:58:51.353Z,27.39
2018-08-03T07:59:51.344Z,27.44
2018-08-03T08:00:51.335Z,27.55
2018-08-03T08:01:51.326Z,27.75
2018-08-03T08:02:51.334Z,27.75
2018-08-03T08:03:51.311Z,27.85
2018-08-03T08:04:51.305Z,27.77
2018-08-03T08:05:51.293Z,27.81
2018-08-03T08:06:51.290Z,27.94
2018-08-03T08:07:51.294Z,27.94
2018-08-03T08:08:51.274Z,27.99
2018-08-03T08:09:51.286Z,27.96
2018-08-03T08:10:51.249Z,28.07
2018-08-03T08:11:51.240Z,28.06
2018-08-03T08:12:51.232Z,28.09
2018-08-03T08:13:51.237Z,28.15
2018-08-03T08:14:51.213Z,28.21
2018-08-03T08:15:51.220Z,28.24
2018-08-03T08:16:51.248Z,28.37
2018-08-03T08:17:51.187Z,28.41
2018-08-03T08:18:51.184Z,28.52
2018-08-03T08:19:51.201Z,28.55
2018-08-03T08:20:51.170Z,28.77
2018-08-03T08:21:51.162Z,28.86
2018-08-03T08:22:51.144Z,28.95
2018-08-03T08:23:51.185Z,29.08
2018-08-03T08:24:51.143Z,29.12
2018-08-03T08:25:51.142Z,29.16
2018-08-03T08:26:51.115Z,29.33
2018-08-03T08:27:51.113Z,29.37
2018-08-03T08:28:51.102Z,29.48
2018-08-03T08:29:51.098Z,29.52
2018-08-03T08:30:51.195Z,29.52
2018-08-03T08:31:51.075Z,29.68
2018-08-03T08:32:51.089Z,29.79
2018-08-03T08:33:51.061Z,29.76
2018-08-03T08:34:51.055Z,29.87
2018-08-03T08:35:51.062Z,30.04
2018-08-03T08:36:51.038Z,30.04
2018-08-03T08:37:51.032Z,30.19
2018-08-03T08:38:51.033Z,30.32
2018-08-03T08:39:51.015Z,30.43
2018-08-03T08:40:51.006Z,30.43
2018-08-03T08:41:51.022Z,30.51
2018-08-03T08:42:50.992Z,30.61
2018-08-03T08:43:51.042Z,30.65
2018-08-03T08:44:50.975Z,30.80
2018-08-03T08:45:50.965Z,30.97
2018-08-03T08:46:50.975Z,30.95
2018-08-03T08:47:50.959Z,31.02
2018-08-03T08:48:50.966Z,31.17
2018-08-03T08:49:50.943Z,31.17
2018-08-03T08:50:50.949Z,31.21
2018-08-03T08:51:50.942Z,31.34
2018-08-03T08:52:50.972Z,31.35
2018-08-03T08:53:50.909Z,31.26
2018-08-03T08:54:50.949Z,31.44
2018-08-03T08:55:50.901Z,31.44
2018-08-03T08:56:50.889Z,31.53
2018-08-03T08:57:50.899Z,31.65
2018-08-03T08:58:50.891Z,31.73
2018-08-03T08:59:50.872Z,31.92
2018-08-03T09:00:50.894Z,32.06
2018-08-03T09:01:51.846Z,32.26
2018-08-03T09:02:50.889Z,32.51
2018-08-03T09:03:50.848Z,32.77
2018-08-03T09:04:50.840Z,33.11
2018-08-03T09:05:50.860Z,33.47
2018-08-03T09:06:50.894Z,33.98
2018-08-03T09:07:50.884Z,34.46
2018-08-03T09:08:50.820Z,34.92
2018-08-03T09:09:50.805Z,35.21
2018-08-03T09:10:50.801Z,35.38
2018-08-03T09:11:50.785Z,35.70
2018-08-03T09:12:50.842Z,36.07
2018-08-03T09:13:50.789Z,36.12
2018-08-03T09:14:50.768Z,36.22
2018-08-03T09:15:50.764Z,36.39
2018-08-03T09:16:50.759Z,36.62
2018-08-03T09:17:50.748Z,36.78
2018-08-03T09:18:50.839Z,36.87
2018-08-03T09:19:50.771Z,36.99
2018-08-03T09:20:50.744Z,37.27
2018-08-03T09:21:50.720Z,37.63
2018-08-03T09:22:50.720Z,37.85
2018-08-03T09:23:50.742Z,38.18
2018-08-03T09:24:50.715Z,38.31
2018-08-03T09:25:50.701Z,38.20
2018-08-03T09:26:50.694Z,38.13
2018-08-03T09:27:50.708Z,38.25
2018-08-03T09:28:50.688Z,38.00
2018-08-03T09:29:50.692Z,38.23
2018-08-03T09:30:50.738Z,38.12
2018-08-03T09:31:50.679Z,38.31
2018-08-03T09:32:50.667Z,38.23
2018-08-03T09:33:50.689Z,38.38
2018-08-03T09:34:50.655Z,38.25
2018-08-03T09:35:50.659Z,37.96
2018-08-03T09:36:50.670Z,37.39
2018-08-03T09:37:50.645Z,37.55
2018-08-03T09:38:50.677Z,37.70
2018-08-03T09:39:50.688Z,37.88
2018-08-03T09:40:50.657Z,37.86
2018-08-03T09:41:50.638Z,38.23
2018-08-03T09:42:50.677Z,38.61
2018-08-03T09:44:11.658Z,39.10
2018-08-03T09:44:50.641Z,38.69
2018-08-03T09:45:50.642Z,38.90
2018-08-03T09:46:50.655Z,39.07
2018-08-03T09:47:50.634Z,39.26
2018-08-03T09:48:50.628Z,39.14
2018-08-03T09:49:50.666Z,39.29
2018-08-03T09:50:50.626Z,39.41
2018-08-03T09:51:50.620Z,39.38
2018-08-03T09:52:50.628Z,39.18
2018-08-03T09:53:50.628Z,39.18
2018-08-03T09:54:50.630Z,39.13
2018-08-03T09:55:50.653Z,39.40
2018-08-03T09:56:50.621Z,39.26
2018-08-03T09:57:50.633Z,39.59
2018-08-03T09:58:50.642Z,39.63
2018-08-03T09:59:50.646Z,39.79
2018-08-03T10:00:50.644Z,39.75
2018-08-03T10:01:50.696Z,39.82
2018-08-03T10:02:50.667Z,40.16
2018-08-03T10:03:50.649Z,40.43
2018-08-03T10:04:50.633Z,40.48
2018-08-03T10:05:50.637Z,40.12
2018-08-03T10:06:50.652Z,39.35
2018-08-03T10:07:50.638Z,38.84
2018-08-03T10:08:50.644Z,39.06
2018-08-03T10:09:50.655Z,39.18
2018-08-03T10:10:50.640Z,39.33
2018-08-03T10:11:50.662Z,39.26
2018-08-03T10:12:50.701Z,39.47
2018-08-03T10:13:50.660Z,39.92
2018-08-03T10:14:50.652Z,39.91
2018-08-03T10:15:50.654Z,39.96
2018-08-03T10:16:50.655Z,39.73
2018-08-03T10:17:50.658Z,39.85
2018-08-03T10:18:50.672Z,39.75
2018-08-03T10:19:50.657Z,40.01
2018-08-03T10:20:50.666Z,40.10
2018-08-03T10:21:50.661Z,40.03
2018-08-03T10:22:50.669Z,40.34
2018-08-03T10:23:50.688Z,40.58
2018-08-03T10:24:50.676Z,40.72
2018-08-03T10:25:50.672Z,40.64
2018-08-03T10:26:50.672Z,40.45
2018-08-03T10:27:50.682Z,40.51
2018-08-03T10:28:50.701Z,40.06
2018-08-03T10:29:50.699Z,39.69
2018-08-03T10:30:50.708Z,39.26
2018-08-03T10:31:50.695Z,38.83
2018-08-03T10:32:50.696Z,38.60
2018-08-03T10:33:50.699Z,38.71
2018-08-03T10:34:50.704Z,39.21
2018-08-03T10:35:50.718Z,39.47
2018-08-03T10:36:50.717Z,39.88
2018-08-03T10:37:50.711Z,40.08
2018-08-03T10:38:50.711Z,40.48
2018-08-03T10:39:50.739Z,40.67
2018-08-03T10:40:50.737Z,40.46
2018-08-03T10:41:50.718Z,40.26
2018-08-03T10:42:50.743Z,40.25
2018-08-03T10:43:50.724Z,39.47
2018-08-03T10:44:50.760Z,38.74
2018-08-03T10:45:50.743Z,39.01
2018-08-03T10:46:50.737Z,39.21
2018-08-03T10:47:50.746Z,39.14
2018-08-03T10:48:50.787Z,39.41
2018-08-03T10:49:50.749Z,40.00
2018-08-03T10:50:50.763Z,40.50
2018-08-03T10:51:50.771Z,40.45
2018-08-03T10:52:50.754Z,40.69
2018-08-03T10:53:50.767Z,41.13
2018-08-03T10:54:50.766Z,40.58
2018-08-03T10:55:50.788Z,40.43
2018-08-03T10:56:50.785Z,39.98
2018-08-03T10:57:50.776Z,39.70
2018-08-03T10:58:50.789Z,39.51
2018-08-03T10:59:50.781Z,40.16
2018-08-03T11:00:50.788Z,40.19
2018-08-03T11:01:50.820Z,40.39
2018-08-03T11:02:50.794Z,40.72
2018-08-03T11:03:50.799Z,40.32
2018-08-03T11:04:50.818Z,40.20
2018-08-03T11:05:50.804Z,40.26
2018-08-03T11:06:50.826Z,40.74
2018-08-03T11:07:50.814Z,40.94
2018-08-03T11:08:50.829Z,40.98
2018-08-03T11:09:50.831Z,41.23
2018-08-03T11:10:50.825Z,41.41
2018-08-03T11:11:50.821Z,41.47
2018-08-03T11:12:50.836Z,41.63
2018-08-03T11:13:50.851Z,41.41
2018-08-03T11:14:50.842Z,41.57
2018-08-03T11:15:50.866Z,41.74
2018-08-03T11:16:50.858Z,41.82
2018-08-03T11:17:53.354Z,41.99
2018-08-03T11:18:50.857Z,42.05
2018-08-03T11:19:50.878Z,41.74
2018-08-03T11:20:50.872Z,41.71
2018-08-03T11:21:50.872Z,41.91
2018-08-03T11:22:50.892Z,41.71
2018-08-03T11:23:50.885Z,41.55
2018-08-03T11:24:50.880Z,41.36
2018-08-03T11:25:50.900Z,40.96
2018-08-03T11:26:50.908Z,39.44
2018-08-03T11:27:50.903Z,38.41
2018-08-03T11:28:50.903Z,38.30
2018-08-03T11:29:50.946Z,38.44
2018-08-03T11:30:50.913Z,38.57
2018-08-03T11:31:50.935Z,38.75
2018-08-03T11:32:50.937Z,39.22
2018-08-03T11:33:50.919Z,39.35
2018-08-03T11:34:50.938Z,39.85
2018-08-03T11:35:50.934Z,40.12
2018-08-03T11:36:50.946Z,40.41
2018-08-03T11:37:50.935Z,40.42
2018-08-03T11:38:50.937Z,40.12
2018-08-03T11:39:50.945Z,40.34
2018-08-03T11:40:51.000Z,40.62
2018-08-03T11:41:50.977Z,40.74
2018-08-03T11:42:50.962Z,40.84
2018-08-03T11:43:50.966Z,41.13
2018-08-03T11:44:50.969Z,41.32
2018-08-03T11:45:50.987Z,41.54
2018-08-03T11:46:50.972Z,40.87
2018-08-03T11:47:50.976Z,41.02
2018-08-03T11:48:50.978Z,41.18
2018-08-03T11:49:50.998Z,40.82
2018-08-03T11:50:50.992Z,41.07
2018-08-03T11:51:51.000Z,41.26
2018-08-03T11:52:51.003Z,41.06
2018-08-03T11:53:51.003Z,41.02
2018-08-03T11:54:51.024Z,40.98
2018-08-03T11:55:51.017Z,40.92
2018-08-03T11:56:51.024Z,41.02
2018-08-03T11:57:51.019Z,41.18
2018-08-03T11:58:51.026Z,41.21
2018-08-03T11:59:51.046Z,41.33
2018-08-03T12:00:51.102Z,41.06
2018-08-03T12:01:51.056Z,41.06
2018-08-03T12:02:51.048Z,41.06
2018-08-03T12:03:51.049Z,41.21
2018-08-03T12:04:51.064Z,40.84
2018-08-03T12:05:51.080Z,40.82
2018-08-03T12:06:51.065Z,40.91
2018-08-03T12:07:51.068Z,41.10
2018-08-03T12:08:51.076Z,41.21
2018-08-03T12:09:51.077Z,41.36
2018-08-03T12:10:51.110Z,41.48
2018-08-03T12:11:51.086Z,41.57
2018-08-03T12:12:51.096Z,41.57
2018-08-03T12:13:51.107Z,41.64
2018-08-03T12:14:51.106Z,41.80
2018-08-03T12:15:51.131Z,41.42
2018-08-03T12:16:51.147Z,41.28
2018-08-03T12:17:51.148Z,41.42
2018-08-03T12:18:51.125Z,41.57
2018-08-03T12:19:51.141Z,41.57
2018-08-03T12:20:51.134Z,41.39
2018-08-03T12:21:51.161Z,41.64
2018-08-03T12:22:51.161Z,41.60
2018-08-03T12:23:51.159Z,41.33
2018-08-03T12:24:51.158Z,41.16
2018-08-03T12:25:51.164Z,40.91
2018-08-03T12:26:51.187Z,41.16
2018-08-03T12:27:51.172Z,41.47
2018-08-03T12:28:51.179Z,41.39
2018-08-03T12:29:51.179Z,41.13
2018-08-03T12:30:51.186Z,40.99
2018-08-03T12:31:51.210Z,40.88
2018-08-03T12:32:51.199Z,40.69
2018-08-03T12:33:51.199Z,40.80
2018-08-03T12:34:51.208Z,40.57
2018-08-03T12:35:51.213Z,40.76
2018-08-03T12:37:12.283Z,40.76
2018-08-03T12:37:51.221Z,40.92
2018-08-03T12:38:51.225Z,40.55
2018-08-03T12:39:51.229Z,40.57
2018-08-03T12:40:51.259Z,40.62
2018-08-03T12:41:51.251Z,40.55
2018-08-03T12:42:51.260Z,40.57
2018-08-03T12:43:51.250Z,40.50
2018-08-03T12:44:51.253Z,40.60
2018-08-03T12:45:51.300Z,40.65
2018-08-03T12:46:51.260Z,40.45
2018-08-03T12:47:51.284Z,40.65
2018-08-03T12:48:51.280Z,40.79
2018-08-03T12:49:51.281Z,40.94
2018-08-03T12:50:51.283Z,41.01
2018-08-03T12:51:51.290Z,40.95
2018-08-03T12:52:51.321Z,40.74